sensor_id;sensor_type;location;lat;lon;timestamp;pressure;altitude;pressure_sealevel;temperature;humidity
29825;BME280;16713;52.916;12.834;2023-07-22T00:00:30;100460.81;;;15.96;75.25
29825;BME280;16713;52.916;12.834;2023-07-22T00:02:57;100462.03;;;15.95;74.69
29825;BME280;16713;52.916;12.834;2023-07-22T00:05:24;100471.88;;;15.99;75.24
29825;BME280;16713;52.916;12.834;2023-07-22T00:07:51;100459.63;;;15.97;74.61
29825;BME280;16713;52.916;12.834;2023-07-22T00:10:18;100465.97;;;15.97;74.86
29825;BME280;16713;52.916;12.834;2023-07-22T00:12:45;100471.09;;;15.99;75.01
29825;BME280;16713;52.916;12.834;2023-07-22T00:15:12;100474.25;;;16.01;74.64
29825;BME280;16713;52.916;12.834;2023-07-22T00:17:39;100464.41;;;15.96;75.23
29825;BME280;16713;52.916;12.834;2023-07-22T00:20:07;100472.69;;;15.96;75.13
29825;BME280;16713;52.916;12.834;2023-07-22T00:22:38;100464.00;;;15.98;75.65
29825;BME280;16713;52.916;12.834;2023-07-22T00:25:07;100460.03;;;15.99;74.75
29825;BME280;16713;52.916;12.834;2023-07-22T00:27:37;100457.66;;;16.01;75.29
29825;BME280;16713;52.916;12.834;2023-07-22T00:30:07;100462.78;;;15.99;75.08
29825;BME280;16713;52.916;12.834;2023-07-22T00:32:35;100467.94;;;16.00;75.41
29825;BME280;16713;52.916;12.834;2023-07-22T00:35:04;100459.63;;;16.00;74.84
29825;BME280;16713;52.916;12.834;2023-07-22T00:37:35;100461.59;;;16.00;74.48
29825;BME280;16713;52.916;12.834;2023-07-22T00:40:02;100456.47;;;16.02;74.80
29825;BME280;16713;52.916;12.834;2023-07-22T00:42:32;100455.28;;;15.99;75.04
29825;BME280;16713;52.916;12.834;2023-07-22T00:44:59;100456.88;;;16.00;75.16
29825;BME280;16713;52.916;12.834;2023-07-22T00:47:25;100455.28;;;16.03;74.63
29825;BME280;16713;52.916;12.834;2023-07-22T00:49:52;100453.69;;;15.98;74.61
29825;BME280;16713;52.916;12.834;2023-07-22T00:52:18;100452.53;;;15.99;74.90
29825;BME280;16713;52.916;12.834;2023-07-22T00:54:45;100461.19;;;16.01;74.47
29825;BME280;16713;52.916;12.834;2023-07-22T00:57:11;100463.97;;;16.01;74.57
29825;BME280;16713;52.916;12.834;2023-07-22T00:59:41;100459.63;;;16.00;74.93
29825;BME280;16713;52.916;12.834;2023-07-22T01:02:08;100453.72;;;15.95;74.47
29825;BME280;16713;52.916;12.834;2023-07-22T01:04:36;100457.25;;;15.99;74.49
29825;BME280;16713;52.916;12.834;2023-07-22T01:07:06;100452.13;;;15.94;74.51
29825;BME280;16713;52.916;12.834;2023-07-22T01:09:35;100461.63;;;15.96;74.72
29825;BME280;16713;52.916;12.834;2023-07-22T01:12:01;100460.81;;;15.89;74.47
29825;BME280;16713;52.916;12.834;2023-07-22T01:14:28;100461.63;;;15.96;74.01
29825;BME280;16713;52.916;12.834;2023-07-22T01:16:55;100460.44;;;16.01;73.85
29825;BME280;16713;52.916;12.834;2023-07-22T01:19:21;100462.41;;;15.97;74.41
29825;BME280;16713;52.916;12.834;2023-07-22T01:21:49;100472.66;;;16.00;73.98
29825;BME280;16713;52.916;12.834;2023-07-22T01:24:17;100473.47;;;16.00;73.53
29825;BME280;16713;52.916;12.834;2023-07-22T01:26:43;100478.59;;;15.98;74.54
29825;BME280;16713;52.916;12.834;2023-07-22T01:29:10;100481.34;;;15.98;73.90
29825;BME280;16713;52.916;12.834;2023-07-22T01:31:37;100481.00;;;15.96;73.83
29825;BME280;16713;52.916;12.834;2023-07-22T01:34:04;100483.75;;;15.96;74.42
29825;BME280;16713;52.916;12.834;2023-07-22T01:36:30;100488.09;;;15.87;73.85
29825;BME280;16713;52.916;12.834;2023-07-22T01:38:57;100488.09;;;15.90;73.82
29825;BME280;16713;52.916;12.834;2023-07-22T01:41:23;100496.00;;;15.85;73.66
29825;BME280;16713;52.916;12.834;2023-07-22T01:43:50;100490.88;;;15.87;73.69
29825;BME280;16713;52.916;12.834;2023-07-22T01:46:16;100491.66;;;15.80;73.68
29825;BME280;16713;52.916;12.834;2023-07-22T01:48:43;100487.69;;;15.78;73.40
29825;BME280;16713;52.916;12.834;2023-07-22T01:51:09;100489.28;;;15.75;73.34
29825;BME280;16713;52.916;12.834;2023-07-22T01:53:36;100490.47;;;15.81;74.06
29825;BME280;16713;52.916;12.834;2023-07-22T01:56:02;100499.94;;;15.73;73.42
29825;BME280;16713;52.916;12.834;2023-07-22T01:58:29;100507.06;;;15.78;73.62
29825;BME280;16713;52.916;12.834;2023-07-22T02:00:55;100507.03;;;15.60;73.61
29825;BME280;16713;52.916;12.834;2023-07-22T02:03:22;100514.16;;;15.68;73.69
29825;BME280;16713;52.916;12.834;2023-07-22T02:05:48;100522.44;;;15.65;74.15
29825;BME280;16713;52.916;12.834;2023-07-22T02:08:15;100517.34;;;15.70;73.40
29825;BME280;16713;52.916;12.834;2023-07-22T02:10:41;100515.72;;;15.69;73.02
29825;BME280;16713;52.916;12.834;2023-07-22T02:13:08;100511.41;;;15.79;73.34
29825;BME280;16713;52.916;12.834;2023-07-22T02:15:35;100515.75;;;15.80;73.42
29825;BME280;16713;52.916;12.834;2023-07-22T02:18:01;100513.00;;;15.80;73.03
29825;BME280;16713;52.916;12.834;2023-07-22T02:20:28;100524.81;;;15.70;73.48
29825;BME280;16713;52.916;12.834;2023-07-22T02:22:55;100536.31;;;15.75;73.18
29825;BME280;16713;52.916;12.834;2023-07-22T02:25:21;100532.34;;;15.62;73.98
29825;BME280;16713;52.916;12.834;2023-07-22T02:27:49;100530.75;;;15.58;74.19
29825;BME280;16713;52.916;12.834;2023-07-22T02:30:15;100539.84;;;15.65;74.20
29825;BME280;16713;52.916;12.834;2023-07-22T02:32:42;100547.34;;;15.72;73.86
29825;BME280;16713;52.916;12.834;2023-07-22T02:35:09;100546.56;;;15.71;73.97
29825;BME280;16713;52.916;12.834;2023-07-22T02:37:37;100545.75;;;15.74;73.15
29825;BME280;16713;52.916;12.834;2023-07-22T02:40:04;100543.78;;;15.75;73.73
29825;BME280;16713;52.916;12.834;2023-07-22T02:42:34;100543.03;;;15.71;73.25
29825;BME280;16713;52.916;12.834;2023-07-22T02:45:02;100544.59;;;15.72;73.26
29825;BME280;16713;52.916;12.834;2023-07-22T02:47:32;100548.91;;;15.73;73.33
29825;BME280;16713;52.916;12.834;2023-07-22T02:49:58;100548.53;;;15.64;72.93
29825;BME280;16713;52.916;12.834;2023-07-22T02:52:25;100548.53;;;15.74;73.69
29825;BME280;16713;52.916;12.834;2023-07-22T02:55:13;100556.84;;;15.78;73.27
29825;BME280;16713;52.916;12.834;2023-07-22T02:57:41;100545.78;;;15.71;73.83
29825;BME280;16713;52.916;12.834;2023-07-22T03:00:08;100551.28;;;15.74;73.40
29825;BME280;16713;52.916;12.834;2023-07-22T03:02:35;100554.84;;;15.71;73.28
29825;BME280;16713;52.916;12.834;2023-07-22T03:05:04;100560.38;;;15.71;73.24
29825;BME280;16713;52.916;12.834;2023-07-22T03:07:34;100552.47;;;15.70;73.04
29825;BME280;16713;52.916;12.834;2023-07-22T03:10:01;100560.38;;;15.71;73.15
29825;BME280;16713;52.916;12.834;2023-07-22T03:12:28;100560.38;;;15.71;72.77
29825;BME280;16713;52.916;12.834;2023-07-22T03:14:55;100556.03;;;15.70;73.49
29825;BME280;16713;52.916;12.834;2023-07-22T03:17:21;100559.97;;;15.69;72.68
29825;BME280;16713;52.916;12.834;2023-07-22T03:19:48;100550.91;;;15.65;72.99
29825;BME280;16713;52.916;12.834;2023-07-22T03:22:15;100557.63;;;15.64;73.10
29825;BME280;16713;52.916;12.834;2023-07-22T03:24:45;100566.28;;;15.59;72.84
29825;BME280;16713;52.916;12.834;2023-07-22T03:27:13;100561.56;;;15.56;73.40
29825;BME280;16713;52.916;12.834;2023-07-22T03:29:41;100561.16;;;15.58;73.24
29825;BME280;16713;52.916;12.834;2023-07-22T03:32:07;100561.56;;;15.56;72.78
29825;BME280;16713;52.916;12.834;2023-07-22T03:34:35;100560.75;;;15.52;72.91
29825;BME280;16713;52.916;12.834;2023-07-22T03:37:01;100572.22;;;15.54;73.15
29825;BME280;16713;52.916;12.834;2023-07-22T03:39:28;100569.03;;;15.52;73.61
29825;BME280;16713;52.916;12.834;2023-07-22T03:41:55;100577.69;;;15.47;72.59
29825;BME280;16713;52.916;12.834;2023-07-22T03:44:21;100571.38;;;15.43;72.88
29825;BME280;16713;52.916;12.834;2023-07-22T03:46:48;100575.69;;;15.44;73.83
29825;BME280;16713;52.916;12.834;2023-07-22T03:49:14;100574.09;;;15.40;73.34
29825;BME280;16713;52.916;12.834;2023-07-22T03:51:41;100580.44;;;15.40;73.71
29825;BME280;16713;52.916;12.834;2023-07-22T03:54:08;100570.53;;;15.36;73.28
29825;BME280;16713;52.916;12.834;2023-07-22T03:56:34;100578.44;;;15.34;73.47
29825;BME280;16713;52.916;12.834;2023-07-22T03:59:01;100571.31;;;15.33;73.58
29825;BME280;16713;52.916;12.834;2023-07-22T04:01:27;100564.63;;;15.34;73.61
29825;BME280;16713;52.916;12.834;2023-07-22T04:03:53;100575.28;;;15.32;73.60
29825;BME280;16713;52.916;12.834;2023-07-22T04:06:20;100573.31;;;15.32;73.90
29825;BME280;16713;52.916;12.834;2023-07-22T04:08:46;100570.91;;;15.27;73.36
29825;BME280;16713;52.916;12.834;2023-07-22T04:11:13;100581.56;;;15.29;73.40
29825;BME280;16713;52.916;12.834;2023-07-22T04:13:40;100584.75;;;15.31;73.76
29825;BME280;16713;52.916;12.834;2023-07-22T04:16:06;100583.94;;;15.30;73.58
29825;BME280;16713;52.916;12.834;2023-07-22T04:18:33;100574.44;;;15.28;72.66
29825;BME280;16713;52.916;12.834;2023-07-22T04:21:01;100585.13;;;15.29;72.79
29825;BME280;16713;52.916;12.834;2023-07-22T04:23:27;100581.16;;;15.27;72.70
29825;BME280;16713;52.916;12.834;2023-07-22T04:25:54;100587.88;;;15.22;72.74
29825;BME280;16713;52.916;12.834;2023-07-22T04:28:20;100584.34;;;15.29;72.72
29825;BME280;16713;52.916;12.834;2023-07-22T04:30:55;100590.63;;;15.29;73.78
29825;BME280;16713;52.916;12.834;2023-07-22T04:33:21;100584.75;;;15.31;73.18
29825;BME280;16713;52.916;12.834;2023-07-22T04:35:48;100588.28;;;15.24;72.62
29825;BME280;16713;52.916;12.834;2023-07-22T04:38:14;100582.34;;;15.22;72.92
29825;BME280;16713;52.916;12.834;2023-07-22T04:40:44;100576.75;;;15.12;72.79
29825;BME280;16713;52.916;12.834;2023-07-22T04:43:10;100583.84;;;15.06;73.97
29825;BME280;16713;52.916;12.834;2023-07-22T04:45:38;100584.66;;;15.13;73.73
29825;BME280;16713;52.916;12.834;2023-07-22T04:48:06;100582.31;;;15.15;73.51
29825;BME280;16713;52.916;12.834;2023-07-22T04:50:33;100587.03;;;15.18;73.01
29825;BME280;16713;52.916;12.834;2023-07-22T04:53:00;100588.25;;;15.17;73.25
29825;BME280;16713;52.916;12.834;2023-07-22T04:55:26;100592.19;;;15.16;73.07
29825;BME280;16713;52.916;12.834;2023-07-22T04:57:56;100587.09;;;15.25;73.22
29825;BME280;16713;52.916;12.834;2023-07-22T05:00:22;100594.56;;;15.21;72.87
29825;BME280;16713;52.916;12.834;2023-07-22T05:02:49;100601.31;;;15.27;72.53
29825;BME280;16713;52.916;12.834;2023-07-22T05:05:16;100606.00;;;15.23;72.99
29825;BME280;16713;52.916;12.834;2023-07-22T05:07:42;100605.25;;;15.23;73.17
29825;BME280;16713;52.916;12.834;2023-07-22T05:10:09;100607.22;;;15.26;72.90
29825;BME280;16713;52.916;12.834;2023-07-22T05:12:39;100609.59;;;15.27;73.61
29825;BME280;16713;52.916;12.834;2023-07-22T05:15:06;100609.97;;;15.29;73.36
29825;BME280;16713;52.916;12.834;2023-07-22T05:17:33;100623.06;;;15.32;73.24
29825;BME280;16713;52.916;12.834;2023-07-22T05:19:59;100622.66;;;15.34;72.87
29825;BME280;16713;52.916;12.834;2023-07-22T05:22:26;100615.53;;;15.36;73.63
29825;BME280;16713;52.916;12.834;2023-07-22T05:24:52;100629.81;;;15.42;72.60
29825;BME280;16713;52.916;12.834;2023-07-22T05:27:18;100617.53;;;15.32;72.13
29825;BME280;16713;52.916;12.834;2023-07-22T05:29:45;100630.97;;;15.44;72.11
29825;BME280;16713;52.916;12.834;2023-07-22T05:32:11;100630.19;;;15.40;73.42
29825;BME280;16713;52.916;12.834;2023-07-22T05:34:58;100640.47;;;15.43;72.84
29825;BME280;16713;52.916;12.834;2023-07-22T05:37:24;100638.47;;;15.44;72.98
29825;BME280;16713;52.916;12.834;2023-07-22T05:39:51;100636.91;;;15.43;73.14
29825;BME280;16713;52.916;12.834;2023-07-22T05:42:18;100631.34;;;15.39;72.88
29825;BME280;16713;52.916;12.834;2023-07-22T05:44:45;100636.56;;;15.51;72.09
29825;BME280;16713;52.916;12.834;2023-07-22T05:47:11;100640.91;;;15.52;72.39
29825;BME280;16713;52.916;12.834;2023-07-22T05:49:37;100646.75;;;15.44;72.60
29825;BME280;16713;52.916;12.834;2023-07-22T05:52:04;100643.25;;;15.47;72.96
29825;BME280;16713;52.916;12.834;2023-07-22T05:54:31;100645.25;;;15.53;72.61
29825;BME280;16713;52.916;12.834;2023-07-22T05:56:57;100646.84;;;15.54;71.97
29825;BME280;16713;52.916;12.834;2023-07-22T05:59:24;100651.63;;;15.64;72.69
29825;BME280;16713;52.916;12.834;2023-07-22T06:01:50;100660.69;;;15.61;72.67
29825;BME280;16713;52.916;12.834;2023-07-22T06:04:17;100655.97;;;15.65;71.95
29825;BME280;16713;52.916;12.834;2023-07-22T06:06:44;100651.25;;;15.66;72.52
29825;BME280;16713;52.916;12.834;2023-07-22T06:09:10;100656.38;;;15.74;71.99
29825;BME280;16713;52.916;12.834;2023-07-22T06:11:37;100653.63;;;15.71;71.20
29825;BME280;16713;52.916;12.834;2023-07-22T06:14:03;100655.56;;;15.67;71.33
29825;BME280;16713;52.916;12.834;2023-07-22T06:16:30;100654.41;;;15.64;71.44
29825;BME280;16713;52.916;12.834;2023-07-22T06:18:56;100656.00;;;15.72;70.89
29825;BME280;16713;52.916;12.834;2023-07-22T06:21:23;100663.84;;;15.56;71.47
29825;BME280;16713;52.916;12.834;2023-07-22T06:23:49;100671.81;;;15.75;70.87
29825;BME280;16713;52.916;12.834;2023-07-22T06:26:16;100663.91;;;15.74;71.39
29825;BME280;16713;52.916;12.834;2023-07-22T06:28:43;100670.25;;;15.85;70.57
29825;BME280;16713;52.916;12.834;2023-07-22T06:31:10;100666.66;;;15.77;70.54
29825;BME280;16713;52.916;12.834;2023-07-22T06:33:36;100671.44;;;15.87;70.54
29825;BME280;16713;52.916;12.834;2023-07-22T06:36:03;100671.44;;;15.91;70.06
29825;BME280;16713;52.916;12.834;2023-07-22T06:38:29;100674.22;;;15.94;70.08
29825;BME280;16713;52.916;12.834;2023-07-22T06:40:56;100681.34;;;15.99;69.83
29825;BME280;16713;52.916;12.834;2023-07-22T06:43:23;100674.66;;;16.10;70.26
29825;BME280;16713;52.916;12.834;2023-07-22T06:45:50;100680.59;;;16.09;69.31
29825;BME280;16713;52.916;12.834;2023-07-22T06:48:16;100677.03;;;16.16;68.83
29825;BME280;16713;52.916;12.834;2023-07-22T06:50:49;100684.56;;;16.29;69.12
29825;BME280;16713;52.916;12.834;2023-07-22T06:53:16;100687.34;;;16.33;69.51
29825;BME280;16713;52.916;12.834;2023-07-22T06:55:52;100688.56;;;16.39;68.73
29825;BME280;16713;52.916;12.834;2023-07-22T06:58:22;100688.16;;;16.44;69.05
29825;BME280;16713;52.916;12.834;2023-07-22T07:00:54;100687.38;;;16.47;67.55
29825;BME280;16713;52.916;12.834;2023-07-22T07:03:22;100687.00;;;16.62;67.32
29825;BME280;16713;52.916;12.834;2023-07-22T07:05:53;100695.69;;;16.64;67.09
29825;BME280;16713;52.916;12.834;2023-07-22T07:08:21;100692.91;;;16.71;67.33
29825;BME280;16713;52.916;12.834;2023-07-22T07:10:48;100698.88;;;16.77;67.69
29825;BME280;16713;52.916;12.834;2023-07-22T07:13:15;100695.69;;;16.75;67.10
29825;BME280;16713;52.916;12.834;2023-07-22T07:15:41;100694.09;;;16.74;66.06
29825;BME280;16713;52.916;12.834;2023-07-22T07:18:08;100697.28;;;16.83;66.54
29825;BME280;16713;52.916;12.834;2023-07-22T07:20:34;100692.53;;;16.83;65.73
29825;BME280;16713;52.916;12.834;2023-07-22T07:23:01;100702.41;;;16.88;66.14
29825;BME280;16713;52.916;12.834;2023-07-22T07:25:27;100701.59;;;16.80;64.56
29825;BME280;16713;52.916;12.834;2023-07-22T07:27:53;100700.81;;;16.87;65.48
29825;BME280;16713;52.916;12.834;2023-07-22T07:30:20;100708.72;;;16.88;65.37
29825;BME280;16713;52.916;12.834;2023-07-22T07:32:46;100692.50;;;16.94;65.48
29825;BME280;16713;52.916;12.834;2023-07-22T07:35:13;100709.09;;;17.04;64.70
29825;BME280;16713;52.916;12.834;2023-07-22T07:37:39;100705.97;;;16.99;64.22
29825;BME280;16713;52.916;12.834;2023-07-22T07:40:06;100719.41;;;17.00;64.77
29825;BME280;16713;52.916;12.834;2023-07-22T07:42:33;100727.72;;;17.04;65.19
29825;BME280;16713;52.916;12.834;2023-07-22T07:44:59;100715.03;;;17.03;64.58
29825;BME280;16713;52.916;12.834;2023-07-22T07:47:26;100713.88;;;17.04;64.68
29825;BME280;16713;52.916;12.834;2023-07-22T07:49:52;100730.50;;;16.97;63.89
29825;BME280;16713;52.916;12.834;2023-07-22T07:52:19;100716.63;;;17.11;64.36
29825;BME280;16713;52.916;12.834;2023-07-22T07:54:45;100730.09;;;17.05;63.24
29825;BME280;16713;52.916;12.834;2023-07-22T07:57:12;100728.50;;;17.04;62.63
29825;BME280;16713;52.916;12.834;2023-07-22T07:59:38;100732.06;;;17.08;62.96
29825;BME280;16713;52.916;12.834;2023-07-22T08:02:06;100724.97;;;17.21;62.96
29825;BME280;16713;52.916;12.834;2023-07-22T08:04:35;100718.63;;;17.21;62.82
29825;BME280;16713;52.916;12.834;2023-07-22T08:07:02;100728.91;;;17.31;62.63
29825;BME280;16713;52.916;12.834;2023-07-22T08:09:30;100735.19;;;17.42;63.30
29825;BME280;16713;52.916;12.834;2023-07-22T08:11:57;100734.00;;;17.46;63.28
29825;BME280;16713;52.916;12.834;2023-07-22T08:14:24;100733.19;;;17.46;62.49
29825;BME280;16713;52.916;12.834;2023-07-22T08:16:50;100731.22;;;17.50;62.66
29825;BME280;16713;52.916;12.834;2023-07-22T08:19:17;100733.59;;;17.48;62.98
29825;BME280;16713;52.916;12.834;2023-07-22T08:21:43;100733.19;;;17.53;62.91
29825;BME280;16713;52.916;12.834;2023-07-22T08:24:10;100735.16;;;17.56;62.36
29825;BME280;16713;52.916;12.834;2023-07-22T08:26:36;100735.94;;;17.60;62.44
29825;BME280;16713;52.916;12.834;2023-07-22T08:29:03;100735.59;;;17.48;61.16
29825;BME280;16713;52.916;12.834;2023-07-22T08:31:29;100737.56;;;17.47;60.46
29825;BME280;16713;52.916;12.834;2023-07-22T08:33:56;100738.72;;;17.57;61.27
29825;BME280;16713;52.916;12.834;2023-07-22T08:36:23;100735.91;;;17.71;61.58
29825;BME280;16713;52.916;12.834;2023-07-22T08:38:49;100742.25;;;17.71;62.46
29825;BME280;16713;52.916;12.834;2023-07-22T08:41:16;100749.38;;;17.72;61.54
29825;BME280;16713;52.916;12.834;2023-07-22T08:43:45;100732.78;;;17.58;60.93
29825;BME280;16713;52.916;12.834;2023-07-22T08:46:12;100743.53;;;17.42;60.47
29825;BME280;16713;52.916;12.834;2023-07-22T08:48:41;100744.69;;;17.44;60.84
29825;BME280;16713;52.916;12.834;2023-07-22T08:51:12;100764.44;;;17.71;61.66
29825;BME280;16713;52.916;12.834;2023-07-22T08:53:42;100763.63;;;17.74;60.08
29825;BME280;16713;52.916;12.834;2023-07-22T08:56:11;100760.81;;;17.85;61.02
29825;BME280;16713;52.916;12.834;2023-07-22T08:58:39;100769.13;;;17.88;60.67
29825;BME280;16713;52.916;12.834;2023-07-22T09:01:08;100771.50;;;17.97;61.08
29825;BME280;16713;52.916;12.834;2023-07-22T09:03:35;100784.16;;;18.05;61.59
29825;BME280;16713;52.916;12.834;2023-07-22T09:06:04;100785.72;;;18.09;61.68
29825;BME280;16713;52.916;12.834;2023-07-22T09:08:30;100781.72;;;18.14;61.67
29825;BME280;16713;52.916;12.834;2023-07-22T09:10:57;100801.13;;;18.21;61.00
29825;BME280;16713;52.916;12.834;2023-07-22T09:13:24;100796.34;;;18.25;60.17
29825;BME280;16713;52.916;12.834;2023-07-22T09:15:51;100792.38;;;18.26;59.58
29825;BME280;16713;52.916;12.834;2023-07-22T09:18:18;100789.56;;;18.33;58.68
29825;BME280;16713;52.916;12.834;2023-07-22T09:20:45;100797.44;;;18.41;58.76
29825;BME280;16713;52.916;12.834;2023-07-22T09:23:11;100797.81;;;18.47;57.76
29825;BME280;16713;52.916;12.834;2023-07-22T09:25:41;100798.59;;;18.51;59.64
29825;BME280;16713;52.916;12.834;2023-07-22T09:28:08;100800.19;;;18.52;58.43
29825;BME280;16713;52.916;12.834;2023-07-22T09:30:38;100800.19;;;18.48;58.95
29825;BME280;16713;52.916;12.834;2023-07-22T09:33:21;100799.41;;;18.48;59.03
29825;BME280;16713;52.916;12.834;2023-07-22T09:35:49;100802.97;;;18.48;59.60
29825;BME280;16713;52.916;12.834;2023-07-22T09:38:25;100801.72;;;18.56;58.57
29825;BME280;16713;52.916;12.834;2023-07-22T09:40:52;100798.97;;;18.56;58.40
29825;BME280;16713;52.916;12.834;2023-07-22T09:43:19;100806.09;;;18.57;58.08
29825;BME280;16713;52.916;12.834;2023-07-22T09:45:47;100801.31;;;18.58;57.95
29825;BME280;16713;52.916;12.834;2023-07-22T09:48:14;100803.72;;;18.52;58.48
29825;BME280;16713;52.916;12.834;2023-07-22T09:50:41;100801.75;;;18.53;57.22
29825;BME280;16713;52.916;12.834;2023-07-22T09:53:08;100808.88;;;18.57;58.01
29825;BME280;16713;52.916;12.834;2023-07-22T09:55:34;100801.41;;;18.44;57.46
29825;BME280;16713;52.916;12.834;2023-07-22T09:58:03;100808.91;;;18.50;57.12
29825;BME280;16713;52.916;12.834;2023-07-22T10:00:33;100816.88;;;18.45;56.72
29825;BME280;16713;52.916;12.834;2023-07-22T10:03:02;100824.00;;;18.49;58.22
29825;BME280;16713;52.916;12.834;2023-07-22T10:05:33;100817.41;;;18.15;56.00
29825;BME280;16713;52.916;12.834;2023-07-22T10:08:02;100822.06;;;18.39;57.25
29825;BME280;16713;52.916;12.834;2023-07-22T10:10:37;100821.59;;;18.55;57.37
29825;BME280;16713;52.916;12.834;2023-07-22T10:13:04;100821.53;;;18.58;57.49
29825;BME280;16713;52.916;12.834;2023-07-22T10:15:33;100827.56;;;18.53;56.27
29825;BME280;16713;52.916;12.834;2023-07-22T10:18:01;100829.84;;;18.65;57.40
29825;BME280;16713;52.916;12.834;2023-07-22T10:20:29;100825.53;;;18.57;55.61
29825;BME280;16713;52.916;12.834;2023-07-22T10:22:56;100816.06;;;18.51;56.14
29825;BME280;16713;52.916;12.834;2023-07-22T10:25:22;100823.56;;;18.58;57.00
29825;BME280;16713;52.916;12.834;2023-07-22T10:27:51;100823.50;;;18.65;56.96
29825;BME280;16713;52.916;12.834;2023-07-22T10:30:18;100818.72;;;18.69;56.20
29825;BME280;16713;52.916;12.834;2023-07-22T10:32:50;100821.91;;;18.64;55.13
29825;BME280;16713;52.916;12.834;2023-07-22T10:35:34;100820.31;;;18.66;56.02
29825;BME280;16713;52.916;12.834;2023-07-22T10:38:11;100826.66;;;18.74;55.19
29825;BME280;16713;52.916;12.834;2023-07-22T10:40:46;100824.66;;;18.71;54.67
29825;BME280;16713;52.916;12.834;2023-07-22T10:43:16;100831.41;;;18.73;55.24
29825;BME280;16713;52.916;12.834;2023-07-22T10:45:51;100825.09;;;18.66;54.80
29825;BME280;16713;52.916;12.834;2023-07-22T10:48:19;100818.00;;;18.54;54.60
29825;BME280;16713;52.916;12.834;2023-07-22T10:50:46;100828.63;;;18.70;54.87
29825;BME280;16713;52.916;12.834;2023-07-22T10:53:20;100827.84;;;18.73;54.47
29825;BME280;16713;52.916;12.834;2023-07-22T10:59:18;100837.75;;;18.70;54.13
29825;BME280;16713;52.916;12.834;2023-07-22T11:12:16;100834.44;;;18.97;54.20
29825;BME280;16713;52.916;12.834;2023-07-22T11:14:49;100841.97;;;19.00;54.20
29825;BME280;16713;52.916;12.834;2023-07-22T11:17:17;100833.19;;;19.05;52.13
29825;BME280;16713;52.916;12.834;2023-07-22T11:19:44;100830.34;;;19.12;52.87
29825;BME280;16713;52.916;12.834;2023-07-22T11:22:11;100828.38;;;19.09;52.94
29825;BME280;16713;52.916;12.834;2023-07-22T11:24:38;100826.38;;;19.13;52.16
29825;BME280;16713;52.916;12.834;2023-07-22T11:27:06;100827.94;;;19.14;51.99
29825;BME280;16713;52.916;12.834;2023-07-22T11:29:34;100824.69;;;19.22;52.74
29825;BME280;16713;52.916;12.834;2023-07-22T11:32:01;100838.94;;;19.28;53.17
29825;BME280;16713;52.916;12.834;2023-07-22T11:34:30;100835.63;;;19.43;51.48
29825;BME280;16713;52.916;12.834;2023-07-22T11:36:56;100831.25;;;19.46;52.71
29825;BME280;16713;52.916;12.834;2023-07-22T11:39:27;100831.63;;;19.48;52.13
29825;BME280;16713;52.916;12.834;2023-07-22T11:41:59;100835.56;;;19.54;51.89
29825;BME280;16713;52.916;12.834;2023-07-22T11:44:28;100830.78;;;19.54;50.12
29825;BME280;16713;52.916;12.834;2023-07-22T11:49:28;100838.59;;;19.66;51.12
29825;BME280;16713;52.916;12.834;2023-07-22T11:54:26;100826.31;;;19.64;50.64
29825;BME280;16713;52.916;12.834;2023-07-22T11:56:55;100826.28;;;19.67;50.23
29825;BME280;16713;52.916;12.834;2023-07-22T11:59:38;100829.81;;;19.71;51.18
29825;BME280;16713;52.916;12.834;2023-07-22T12:02:06;100827.41;;;19.73;50.94
29825;BME280;16713;52.916;12.834;2023-07-22T12:04:33;100825.44;;;19.70;50.89
29825;BME280;16713;52.916;12.834;2023-07-22T12:07:01;100828.66;;;19.69;50.04
29825;BME280;16713;52.916;12.834;2023-07-22T12:09:27;100811.19;;;19.65;49.77
29825;BME280;16713;52.916;12.834;2023-07-22T12:11:56;100826.59;;;19.73;50.35
29825;BME280;16713;52.916;12.834;2023-07-22T12:14:25;100830.19;;;19.73;50.81
29825;BME280;16713;52.916;12.834;2023-07-22T12:16:58;100832.56;;;19.75;51.14
29825;BME280;16713;52.916;12.834;2023-07-22T12:19:27;100828.72;;;19.62;49.44
29825;BME280;16713;52.916;12.834;2023-07-22T12:21:54;100822.69;;;19.67;50.18
29825;BME280;16713;52.916;12.834;2023-07-22T12:24:20;100823.41;;;19.74;50.32
29825;BME280;16713;52.916;12.834;2023-07-22T12:26:47;100825.84;;;19.72;50.09
29825;BME280;16713;52.916;12.834;2023-07-22T12:29:13;100819.47;;;19.72;49.85
29825;BME280;16713;52.916;12.834;2023-07-22T12:31:40;100831.75;;;19.74;49.76
29825;BME280;16713;52.916;12.834;2023-07-22T12:34:06;100819.91;;;19.67;48.97
29825;BME280;16713;52.916;12.834;2023-07-22T12:36:32;100816.38;;;19.63;48.69
29825;BME280;16713;52.916;12.834;2023-07-22T12:38:59;100816.69;;;19.72;50.28
29825;BME280;16713;52.916;12.834;2023-07-22T12:41:25;100814.63;;;19.76;51.07
29825;BME280;16713;52.916;12.834;2023-07-22T12:43:52;100817.13;;;19.67;49.60
29825;BME280;16713;52.916;12.834;2023-07-22T12:46:19;100815.97;;;19.64;50.41
29825;BME280;16713;52.916;12.834;2023-07-22T12:48:45;100808.53;;;19.54;49.18
29825;BME280;16713;52.916;12.834;2023-07-22T12:51:12;100814.72;;;19.69;50.42
29825;BME280;16713;52.916;12.834;2023-07-22T12:53:39;100814.72;;;19.69;50.91
29825;BME280;16713;52.916;12.834;2023-07-22T12:56:05;100803.69;;;19.58;49.08
29825;BME280;16713;52.916;12.834;2023-07-22T12:58:32;100807.66;;;19.61;49.18
29825;BME280;16713;52.916;12.834;2023-07-22T13:00:59;100802.84;;;19.65;49.53